Terminal Aerodrome Forecast
Issued by NWS Bismarck, ND

Home | Current Version | Previous Version | Text Only | Print | Product List | Glossary Off
Versions: 1 2 3 4 5 6 7 8 9 10 11 12 13 14 15 16 17 18

000
FTUS43 KBIS 241138
TAFISN
TAF
KISN 241138Z 2412/2512 16019G28KT P6SM SCT200
     FM242100 21018G25KT P6SM VCSH BKN090
     FM250000 23015KT P6SM -SHRA OVC070
     FM250400 18007KT P6SM BKN110=

USA.gov is the U.S. government's official web portal to all federal, state and local government web resources and services.